Terminal Aerodrome Forecast
Issued by NWS

Current Version | Previous Version | Text Only | Print | Product List | Glossary On
Versions: 1 2 3 4 5 6 7 8 9 10 11 12
301
FTUS42 KTBW 131725
TAFPGD
TAF
KPGD 131725Z 1318/1418 02005KT P6SM SKC
     FM132100 29007KT P6SM SKC
     FM140300 VRB03KT P6SM SKC
     FM141500 22005KT P6SM FEW025 SCT050=

USA.gov is the U.S. government's official web portal to all federal, state and local government web resources and services.